Time;durP1;ratioP1;P1;durP2;ratioP2;P2;SDS_P1;SDS_P2;PMS_P1;PMS_P2;Temp;Humidity;BMP_temperature;BMP_pressure;BME280_temperature;BME280_humidity;BME280_pressure;Samples;Min_cycle;Max_cycle;Signal;HPM_P1;HPM_P2
2022/10/09 00:00:52;;;;;;;37.50;19.17;;;;;;;9.10;93.95;94885.14;1693638;83;20967;-50
2022/10/09 00:03:18;;;;;;;34.35;19.80;;;;;;;9.08;93.96;94890.92;1665029;84;21535;-50
2022/10/09 00:05:46;;;;;;;36.73;21.30;;;;;;;9.05;94.05;94892.55;1693580;84;21076;-48
2022/10/09 00:08:12;;;;;;;40.33;21.00;;;;;;;9.04;93.77;94882.77;1693396;84;21193;-50
2022/10/09 00:10:42;;;;;;;38.17;20.27;;;;;;;9.04;93.68;94884.14;1693632;83;21425;-50
2022/10/09 00:13:10;;;;;;;35.15;19.32;;;;;;;9.06;93.53;94887.23;1693352;83;21011;-49
2022/10/09 00:15:41;;;;;;;37.50;20.08;;;;;;;9.02;93.30;94883.03;1693493;83;21508;-50
2022/10/09 00:18:12;;;;;;;39.60;21.50;;;;;;;8.95;93.41;94881.86;1693404;83;20972;-49
2022/10/09 00:20:41;;;;;;;33.23;20.15;;;;;;;8.93;93.88;94881.52;1665937;84;21126;-49
2022/10/09 00:23:08;;;;;;;44.98;24.98;;;;;;;8.95;93.78;94883.23;1693254;84;21008;-49
2022/10/09 00:25:36;;;;;;;49.20;25.75;;;;;;;8.94;93.53;94882.48;1693584;84;21075;-48
2022/10/09 00:28:03;;;;;;;49.85;25.48;;;;;;;8.94;93.26;94876.20;1695672;84;20972;-50
2022/10/09 00:30:30;;;;;;;51.40;25.05;;;;;;;8.93;92.92;94878.78;1696629;84;21067;-49
2022/10/09 00:32:57;;;;;;;45.78;23.40;;;;;;;8.87;92.76;94879.15;1696458;84;21131;-49
2022/10/09 00:35:24;;;;;;;41.65;22.52;;;;;;;8.81;92.91;94876.75;1696565;83;21833;-51
2022/10/09 00:37:51;;;;;;;45.52;23.10;;;;;;;8.77;93.03;94882.93;1670829;84;20977;-50
2022/10/09 00:40:19;;;;;;;45.98;23.05;;;;;;;8.77;93.18;94875.32;1696535;84;21614;-50
2022/10/09 00:42:47;;;;;;;44.15;23.62;;;;;;;8.78;93.32;94887.22;1696554;83;21035;-50
2022/10/09 00:45:19;;;;;;;39.35;23.67;;;;;;;8.78;93.26;94883.72;1696857;84;21232;-50
2022/10/09 00:47:50;;;;;;;36.68;20.08;;;;;;;8.71;92.97;94883.30;1696908;84;21002;-50
2022/10/09 00:50:46;;;;;;;38.15;21.00;;;;;;;8.65;93.00;94882.88;1696831;84;21019;-49
2022/10/09 00:53:15;;;;;;;40.35;23.22;;;;;;;8.61;93.19;94892.55;1696690;83;20984;-49
2022/10/09 00:55:42;;;;;;;40.70;22.17;;;;;;;8.62;93.48;94888.61;1670932;84;21007;-49
2022/10/09 00:58:10;;;;;;;61.92;25.00;;;;;;;8.62;93.23;94891.97;1696468;84;22089;-49
2022/10/09 01:00:38;;;;;;;45.52;22.62;;;;;;;8.63;93.38;94887.41;1671069;84;21171;-50
2022/10/09 01:03:05;;;;;;;41.30;20.05;;;;;;;8.62;93.05;94892.72;1670631;84;21135;-50
2022/10/09 01:05:58;;;;;;;45.45;22.75;;;;;;;8.56;92.82;94893.08;1696575;83;21008;-49
2022/10/09 01:08:38;;;;;;;26.77;17.50;;;;;;;8.56;92.95;94888.97;1696639;83;21025;-49
2022/10/09 01:11:31;;;;;;;36.95;19.85;;;;;;;8.52;92.61;94899.27;1696817;83;21241;-49
2022/10/09 01:14:19;;;;;;;40.08;22.60;;;;;;;8.47;92.86;94903.12;1668585;84;21067;-49
2022/10/09 01:17:29;;;;;;;37.42;19.70;;;;;;;8.42;92.57;94896.17;1696604;83;21003;-50
2022/10/09 01:20:17;;;;;;;51.33;22.40;;;;;;;8.41;92.67;94896.00;1696706;83;21035;-50
2022/10/09 01:23:13;;;;;;;51.50;25.10;;;;;;;8.43;92.65;94897.71;1696589;84;21070;-49
2022/10/09 01:26:17;;;;;;;60.98;27.02;;;;;;;8.42;92.61;94894.05;1696622;83;21342;-49
2022/10/09 01:28:51;;;;;;;57.17;28.45;;;;;;;8.35;92.71;94900.47;1693809;84;21212;-49
2022/10/09 01:31:17;;;;;;;43.87;21.25;;;;;;;8.35;93.30;94903.21;1693618;84;20995;-50
2022/10/09 01:33:44;;;;;;;45.58;21.52;;;;;;;8.33;92.78;94904.24;1693548;84;21047;-50
2022/10/09 01:36:11;;;;;;;39.60;20.55;;;;;;;8.31;92.54;94909.38;1693563;83;20979;-49
2022/10/09 01:38:39;;;;;;;60.45;25.05;;;;;;;8.30;92.58;94906.48;1693598;84;21326;-49
2022/10/09 01:41:05;;;;;;;50.48;25.00;;;;;;;8.29;92.77;94907.64;1693351;83;21508;-49
2022/10/09 01:43:32;;;;;;;54.73;26.37;;;;;;;8.32;92.81;94906.81;1693604;84;20983;-50
2022/10/09 01:46:24;;;;;;;64.47;29.75;;;;;;;8.36;92.76;94912.19;1693674;84;20976;-50
2022/10/09 01:49:19;;;;;;;64.80;28.23;;;;;;;8.33;92.56;94913.84;1693761;83;21447;-49
2022/10/09 01:52:25;;;;;;;64.37;26.93;;;;;;;8.25;92.37;94915.19;1693776;83;21464;-49
2022/10/09 01:55:03;;;;;;;42.75;23.90;;;;;;;8.22;92.92;94917.42;1693579;84;20972;-49
2022/10/09 01:57:54;;;;;;;48.80;23.98;;;;;;;8.15;92.97;94911.30;1693494;84;21443;-48
2022/10/09 02:00:20;;;;;;;54.98;24.47;;;;;;;8.11;92.91;94917.47;1693530;83;21058;-48
2022/10/09 02:02:47;;;;;;;51.13;23.67;;;;;;;8.04;93.13;94915.66;1693681;84;21502;-49
2022/10/09 02:05:21;;;;;;;41.53;23.70;;;;;;;8.04;93.38;94923.88;1693550;84;22114;-50
2022/10/09 02:07:48;;;;;;;51.13;25.57;;;;;;;8.05;93.75;94928.16;1693804;84;21059;-48
2022/10/09 02:10:16;;;;;;;47.25;24.77;;;;;;;8.01;93.32;94926.69;1693399;84;21051;-49
2022/10/09 02:12:48;;;;;;;44.18;23.40;;;;;;;7.95;93.29;94927.03;1693590;83;21012;-49
2022/10/09 02:15:15;;;;;;;35.00;20.45;;;;;;;7.91;93.46;94932.58;1693671;84;21058;-49
2022/10/09 02:17:45;;;;;;;45.75;24.27;;;;;;;7.88;93.43;94921.11;1693648;83;21243;-49
2022/10/09 02:20:31;;;;;;;52.45;24.90;;;;;;;7.82;93.42;94920.66;1693454;84;21443;-49
2022/10/09 02:22:58;;;;;;;43.75;23.00;;;;;;;7.75;93.63;94920.25;1693612;83;21055;-49
2022/10/09 02:25:25;;;;;;;50.90;25.55;;;;;;;7.70;94.06;94923.47;1693478;83;21058;-49
2022/10/09 02:27:51;;;;;;;41.37;24.05;;;;;;;7.69;94.14;94926.03;1667613;84;21023;-49
2022/10/09 02:30:18;;;;;;;50.45;27.52;;;;;;;7.70;93.98;94922.70;1670645;84;21280;-49
2022/10/09 02:32:45;;;;;;;47.53;24.55;;;;;;;7.65;93.66;94920.45;1696459;83;21042;-49
2022/10/09 02:35:12;;;;;;;40.65;22.55;;;;;;;7.61;93.86;94922.50;1670410;84;20996;-50
2022/10/09 02:37:39;;;;;;;43.68;23.73;;;;;;;7.60;94.07;94927.22;1696601;84;20999;-50
2022/10/09 02:40:09;;;;;;;43.55;24.65;;;;;;;7.59;94.18;94936.62;1696490;83;21059;-49
2022/10/09 02:42:37;;;;;;;57.70;26.57;;;;;;;7.59;94.12;94944.05;1696626;84;21176;-48
2022/10/09 02:45:06;;;;;;;56.30;27.20;;;;;;;7.56;93.77;94941.55;1696503;84;20952;-49
2022/10/09 02:47:33;;;;;;;52.50;26.73;;;;;;;7.56;93.73;94938.06;1696673;84;20988;-51
2022/10/09 02:49:59;;;;;;;56.70;28.32;;;;;;;7.55;93.67;94941.38;1696452;83;21054;-50
2022/10/09 02:52:26;;;;;;;63.25;28.12;;;;;;;7.49;93.65;94945.81;1696428;84;21507;-49
2022/10/09 02:54:53;;;;;;;57.48;28.23;;;;;;;7.43;93.76;94940.67;1696447;84;21250;-49
2022/10/09 02:57:19;;;;;;;51.40;25.80;;;;;;;7.39;94.14;94945.45;1696480;84;21073;-48
2022/10/09 02:59:47;;;;;;;60.17;25.23;;;;;;;7.39;94.24;94948.19;1696626;83;21075;-49
2022/10/09 03:02:14;;;;;;;46.35;24.63;;;;;;;7.46;94.60;94944.52;1696341;83;20964;-49
2022/10/09 03:04:40;;;;;;;46.88;24.23;;;;;;;7.50;94.38;94949.34;1670785;84;21610;-49
2022/10/09 03:07:08;;;;;;;49.55;23.18;;;;;;;7.46;93.91;94949.41;1696442;84;21131;-49
2022/10/09 03:09:35;;;;;;;47.67;26.05;;;;;;;7.42;93.78;94958.88;1696529;84;21058;-49
2022/10/09 03:12:02;;;;;;;48.33;23.75;;;;;;;7.36;93.75;94954.48;1696595;84;20999;-49
2022/10/09 03:14:30;;;;;;;47.85;22.55;;;;;;;7.34;93.83;94955.50;1696531;83;20992;-49
2022/10/09 03:16:58;;;;;;;63.17;26.00;;;;;;;7.32;93.83;94951.66;1696492;84;21042;-48
2022/10/09 03:19:24;;;;;;;55.83;25.57;;;;;;;7.25;93.72;94952.56;1696697;84;21639;-49
2022/10/09 03:21:51;;;;;;;50.65;26.12;;;;;;;7.19;94.03;94952.10;1696433;83;20968;-49
2022/10/09 03:24:18;;;;;;;50.92;24.15;;;;;;;7.19;94.61;94954.23;1696422;83;21071;-49
2022/10/09 03:26:46;;;;;;;45.78;22.13;;;;;;;7.17;94.56;94955.25;1696698;83;21011;-49
2022/10/09 03:29:12;;;;;;;50.73;26.87;;;;;;;7.16;94.60;94957.81;1696355;83;20972;-49
2022/10/09 03:31:39;;;;;;;55.40;27.02;;;;;;;7.24;94.96;94963.92;1696433;84;21128;-49
2022/10/09 03:34:06;;;;;;;57.30;29.37;;;;;;;7.19;94.35;94959.70;1696236;83;21007;-49
2022/10/09 03:36:33;;;;;;;50.15;25.85;;;;;;;7.09;94.23;94964.00;1696681;83;21475;-51
2022/10/09 03:39:00;;;;;;;42.95;22.27;;;;;;;7.00;94.34;94963.80;1696475;84;21003;-49
2022/10/09 03:41:26;;;;;;;36.80;21.30;;;;;;;6.92;94.56;94964.34;1696504;84;21099;-49
2022/10/09 03:43:53;;;;;;;38.13;20.70;;;;;;;6.85;94.47;94960.38;1696505;84;21144;-49
2022/10/09 03:46:20;;;;;;;40.85;23.87;;;;;;;6.80;94.64;94957.52;1696418;84;21114;-49
2022/10/09 03:48:47;;;;;;;49.42;24.80;;;;;;;6.81;95.04;94961.80;1696566;83;21011;-50
2022/10/09 03:51:13;;;;;;;50.00;23.95;;;;;;;6.86;95.42;94959.19;1696260;84;21020;-50
2022/10/09 03:53:40;;;;;;;46.08;23.62;;;;;;;6.88;95.56;94959.53;1696511;84;21463;-48
2022/10/09 03:56:07;;;;;;;42.85;25.10;;;;;;;6.95;95.70;94961.55;1696582;83;21510;-49
2022/10/09 03:58:33;;;;;;;40.17;22.00;;;;;;;6.99;95.50;94960.10;1696409;83;20967;-49
2022/10/09 04:01:00;;;;;;;44.27;22.87;;;;;;;7.07;95.89;94967.76;1670619;84;20983;-50
2022/10/09 04:03:27;;;;;;;46.53;23.38;;;;;;;7.14;95.66;94964.91;1696415;84;20995;-49
2022/10/09 04:05:54;;;;;;;46.05;24.60;;;;;;;7.19;95.35;94961.67;1696460;84;21016;-50
2022/10/09 04:08:22;;;;;;;41.33;21.48;;;;;;;7.18;94.86;94969.10;1696636;83;21292;-49
2022/10/09 04:10:58;;;;;;;33.50;20.30;;;;;;;7.17;94.88;94979.11;1696587;84;20991;-49
2022/10/09 04:13:25;;;;;;;28.32;19.30;;;;;;;7.19;94.66;94972.02;1697060;84;21077;-49
2022/10/09 04:15:52;;;;;;;42.93;22.87;;;;;;;7.15;94.44;94978.16;1696738;83;21101;-50
2022/10/09 04:18:20;;;;;;;33.35;22.15;;;;;;;7.12;94.97;94978.99;1696613;83;21082;-49
2022/10/09 04:20:51;;;;;;;35.95;21.17;;;;;;;7.15;95.19;94977.39;1696710;84;21242;-50
2022/10/09 04:23:21;;;;;;;55.38;32.85;;;;;;;7.21;95.54;94983.34;1696680;84;20984;-50
2022/10/09 04:25:53;;;;;;;73.17;35.40;;;;;;;7.30;95.56;94980.80;1696964;84;21078;-49
2022/10/09 04:28:22;;;;;;;54.60;32.47;;;;;;;7.39;95.50;94987.88;1695829;83;21680;-51
2022/10/09 04:30:48;;;;;;;64.85;32.80;;;;;;;7.47;95.44;94990.63;1693750;83;21271;-50
2022/10/09 04:33:15;;;;;;;51.53;29.15;;;;;;;7.58;95.62;94996.69;1693572;84;21141;-49
2022/10/09 04:35:47;;;;;;;50.20;29.12;;;;;;;7.70;95.42;94990.55;1693714;84;21432;-49
2022/10/09 04:38:15;;;;;;;49.83;24.95;;;;;;;7.79;94.55;95000.35;1693422;83;21185;-51
2022/10/09 04:40:42;;;;;;;46.68;24.60;;;;;;;7.83;94.22;94993.41;1693682;84;20967;-50
2022/10/09 04:43:09;;;;;;;41.45;24.43;;;;;;;7.85;93.65;95000.02;1693609;83;21023;-51
2022/10/09 04:45:39;;;;;;;36.80;21.40;;;;;;;7.83;93.14;94994.78;1665936;84;21239;-49
2022/10/09 04:48:06;;;;;;;33.88;21.02;;;;;;;7.74;93.12;94993.98;1693542;84;21024;-51
2022/10/09 04:50:33;;;;;;;32.03;19.27;;;;;;;7.69;93.09;95000.58;1693656;83;21007;-51
2022/10/09 04:53:01;;;;;;;36.93;20.45;;;;;;;7.66;93.00;94993.97;1693531;83;21003;-50
2022/10/09 04:55:28;;;;;;;39.53;23.80;;;;;;;7.64;92.91;95001.05;1666018;84;21507;-50
2022/10/09 04:57:55;;;;;;;50.45;24.65;;;;;;;7.64;93.07;94994.98;1693586;83;21243;-50
2022/10/09 05:00:22;;;;;;;40.38;21.57;;;;;;;7.66;93.30;94989.86;1693490;84;21139;-50
2022/10/09 05:02:49;;;;;;;42.48;19.82;;;;;;;7.71;93.68;94993.46;1693582;83;21022;-50
2022/10/09 05:05:16;;;;;;;39.08;20.45;;;;;;;7.76;94.12;94993.57;1693129;83;21515;-50
2022/10/09 05:07:42;;;;;;;37.67;21.07;;;;;;;7.83;94.34;94999.67;1693589;84;20983;-50
2022/10/09 05:10:09;;;;;;;43.90;22.30;;;;;;;7.95;94.77;94999.04;1693628;83;21767;-49
2022/10/09 05:12:36;;;;;;;34.58;19.65;;;;;;;8.08;94.66;95000.52;1666082;84;21495;-49
2022/10/09 05:15:04;;;;;;;39.85;20.88;;;;;;;8.15;94.45;95001.14;1693554;83;20988;-50
2022/10/09 05:17:32;;;;;;;32.35;18.42;;;;;;;8.25;94.71;95008.98;1665901;84;20979;-50
2022/10/09 05:19:58;;;;;;;38.13;18.87;;;;;;;8.35;94.61;95016.97;1693664;83;21598;-50
2022/10/09 05:22:27;;;;;;;29.57;17.73;;;;;;;8.39;94.18;95017.66;1693613;84;21519;-50
2022/10/09 05:24:54;;;;;;;36.55;19.23;;;;;;;8.41;94.07;95017.99;1693740;83;21400;-51
2022/10/09 05:27:20;;;;;;;33.95;18.10;;;;;;;8.48;94.23;95017.85;1693570;84;21059;-50
2022/10/09 05:29:47;;;;;;;36.48;19.62;;;;;;;8.61;94.70;95028.91;1695875;84;21007;-51
2022/10/09 05:32:14;;;;;;;54.73;28.87;;;;;;;8.71;94.40;95031.41;1696287;84;20958;-49
2022/10/09 05:34:44;;;;;;;39.63;25.20;;;;;;;8.74;93.86;95029.17;1696628;83;21102;-49
2022/10/09 05:37:11;;;;;;;35.78;21.10;;;;;;;8.76;93.92;95034.23;1696341;83;20971;-51
2022/10/09 05:39:38;;;;;;;39.38;24.67;;;;;;;8.87;94.34;95030.04;1696500;84;21071;-50
2022/10/09 05:42:05;;;;;;;37.93;22.02;;;;;;;9.01;94.00;95029.67;1670734;84;21077;-50
2022/10/09 05:44:33;;;;;;;34.48;21.75;;;;;;;9.14;93.87;95037.38;1696693;84;21011;-49
2022/10/09 05:47:00;;;;;;;46.85;25.00;;;;;;;9.28;94.15;95037.78;1696501;83;22151;-49
2022/10/09 05:49:27;;;;;;;35.48;21.68;;;;;;;9.41;93.50;95031.77;1696476;84;21022;-52
2022/10/09 05:51:54;;;;;;;74.95;21.52;;;;;;;9.47;93.00;95041.01;1670711;84;20956;-50
2022/10/09 05:54:22;;;;;;;32.50;19.85;;;;;;;9.50;92.34;95033.89;1696475;83;21630;-51
2022/10/09 05:56:50;;;;;;;28.15;19.98;;;;;;;9.51;92.37;95034.06;1696670;83;21526;-49
2022/10/09 05:59:18;;;;;;;34.65;23.67;;;;;;;9.53;92.49;95038.52;1696370;83;21331;-49
2022/10/09 06:01:49;;;;;;;41.48;24.65;;;;;;;9.56;93.06;95041.77;1696485;84;21027;-50
2022/10/09 06:04:19;;;;;;;32.40;22.30;;;;;;;9.65;93.17;95044.05;1696828;83;21015;-51
2022/10/09 06:06:49;;;;;;;35.10;20.90;;;;;;;9.75;92.79;95057.33;1696622;83;21019;-49
2022/10/09 06:09:21;;;;;;;47.10;20.05;;;;;;;9.82;92.72;95055.16;1696689;83;21585;-50
2022/10/09 06:11:50;;;;;;;36.95;20.82;;;;;;;9.89;92.17;95060.48;1696515;83;21416;-50
2022/10/09 06:14:17;;;;;;;42.53;21.50;;;;;;;9.98;92.25;95058.48;1696382;84;20970;-51
2022/10/09 06:16:44;;;;;;;37.45;21.48;;;;;;;10.07;92.10;95054.51;1696635;84;20967;-49
2022/10/09 06:19:15;;;;;;;33.55;17.48;;;;;;;10.15;92.00;95066.86;1696407;84;20972;-49
2022/10/09 06:21:44;;;;;;;31.27;17.23;;;;;;;10.22;91.42;95065.27;1696751;83;20991;-49
2022/10/09 06:24:20;;;;;;;30.65;16.37;;;;;;;10.20;90.85;95067.07;1696431;84;21132;-51
2022/10/09 06:26:47;;;;;;;28.85;17.80;;;;;;;10.23;90.62;95066.81;1696473;84;21038;-52
2022/10/09 06:29:14;;;;;;;24.32;14.98;;;;;;;10.29;91.20;95060.93;1696387;84;21023;-50
2022/10/09 06:31:42;;;;;;;31.00;18.85;;;;;;;10.38;90.96;95065.20;1696584;83;20983;-49
2022/10/09 06:34:10;;;;;;;30.02;18.00;;;;;;;10.42;90.43;95063.11;1696352;83;21046;-50
2022/10/09 06:36:36;;;;;;;28.27;16.85;;;;;;;10.43;89.96;95077.02;1670832;84;21260;-49
2022/10/09 06:39:05;;;;;;;29.55;16.50;;;;;;;10.40;89.46;95077.91;1696279;83;21011;-51
2022/10/09 06:41:33;;;;;;;29.82;16.07;;;;;;;10.36;89.41;95078.00;1696536;83;20975;-50
2022/10/09 06:44:04;;;;;;;24.57;12.00;;;;;;;10.35;89.50;95079.83;1694955;83;21088;-51
2022/10/09 06:46:34;;;;;;;23.15;14.03;;;;;;;10.36;89.82;95087.63;1696788;84;20967;-49
2022/10/09 06:49:01;;;;;;;21.35;12.78;;;;;;;10.41;89.86;95082.19;1696516;83;21249;-51
2022/10/09 06:51:28;;;;;;;20.52;10.20;;;;;;;10.44;90.10;95082.09;1696337;83;21122;-50
2022/10/09 06:53:57;;;;;;;15.72;10.55;;;;;;;10.53;89.71;95086.33;1670600;84;21011;-50
2022/10/09 06:56:28;;;;;;;23.55;12.75;;;;;;;10.59;88.82;95086.56;1696458;83;21027;-50
2022/10/09 06:58:55;;;;;;;30.00;14.23;;;;;;;10.61;88.36;95082.17;1670655;84;21122;-50
2022/10/09 07:01:25;;;;;;;23.67;12.80;;;;;;;10.61;88.13;95084.93;1696509;83;21284;-50
2022/10/09 07:03:55;;;;;;;21.85;13.05;;;;;;;10.62;88.29;95087.84;1696451;83;21011;-50
2022/10/09 07:06:24;;;;;;;22.37;9.40;;;;;;;10.68;87.61;95090.83;1696464;83;21553;-50
2022/10/09 07:08:56;;;;;;;13.93;10.35;;;;;;;10.72;87.08;95090.86;1696497;83;20987;-52
2022/10/09 07:11:37;;;;;;;30.63;14.40;;;;;;;10.79;86.87;95094.17;1696826;84;21038;-52
2022/10/09 07:14:06;;;;;;;28.17;16.10;;;;;;;10.91;86.84;95101.67;1696505;83;21872;-53
2022/10/09 07:16:41;;;;;;;28.38;17.65;;;;;;;11.03;86.97;95099.53;1696376;84;21492;-50
2022/10/09 07:19:10;;;;;;;26.60;17.00;;;;;;;11.16;87.36;95101.66;1672111;84;21014;-51
2022/10/09 07:21:41;;;;;;;24.18;14.93;;;;;;;11.28;87.13;95099.50;1696559;83;21051;-52
2022/10/09 07:24:09;;;;;;;25.43;14.93;;;;;;;11.35;86.71;95106.15;1696604;83;21541;-52
2022/10/09 07:26:38;;;;;;;21.52;15.20;;;;;;;11.45;86.52;95113.91;1696457;84;21164;-50
2022/10/09 07:29:06;;;;;;;16.82;12.80;;;;;;;11.55;85.87;95109.42;1696111;84;21417;-52
2022/10/09 07:31:33;;;;;;;20.72;13.45;;;;;;;11.58;84.87;95104.45;1670387;84;21467;-50
2022/10/09 07:34:00;;;;;;;32.30;15.32;;;;;;;11.51;84.27;95110.15;1696697;83;21432;-51
2022/10/09 07:36:27;;;;;;;25.17;15.35;;;;;;;11.47;84.48;95112.25;1696486;84;20999;-50
2022/10/09 07:38:56;;;;;;;26.55;14.55;;;;;;;11.48;84.59;95109.66;1696406;83;21155;-50
2022/10/09 07:41:24;;;;;;;26.80;13.62;;;;;;;11.49;84.28;95113.95;1696224;84;21113;-51
2022/10/09 07:43:52;;;;;;;23.00;13.05;;;;;;;11.49;83.75;95118.09;1696562;83;21055;-50
2022/10/09 07:46:20;;;;;;;28.15;15.10;;;;;;;11.42;83.68;95123.84;1696254;84;21023;-53
2022/10/09 07:48:48;;;;;;;23.38;15.40;;;;;;;11.33;83.86;95121.59;1670611;84;21015;-50
2022/10/09 07:51:24;;;;;;;33.33;21.62;;;;;;;11.30;84.24;95123.24;1696226;84;21939;-54
2022/10/09 07:53:51;;;;;;;24.00;16.40;;;;;;;11.31;84.40;95122.03;1696339;84;20972;-52
2022/10/09 07:56:21;;;;;;;32.08;20.85;;;;;;;11.38;84.65;95125.92;1696446;84;21533;-51
2022/10/09 07:58:55;;;;;;;25.62;18.32;;;;;;;11.47;84.65;95127.41;1696542;83;21053;-49
2022/10/09 08:01:21;;;;;;;22.77;16.50;;;;;;;11.51;84.70;95132.19;1696281;84;21089;-53
2022/10/09 08:03:49;;;;;;;25.23;16.80;;;;;;;11.59;85.10;95132.77;1696715;84;21145;-52
2022/10/09 08:06:17;;;;;;;44.63;22.77;;;;;;;11.72;85.19;95138.41;1670448;84;21035;-49
2022/10/09 08:08:50;;;;;;;37.23;21.15;;;;;;;11.79;84.24;95140.94;1696421;83;21546;-51
2022/10/09 08:11:19;;;;;;;25.15;15.35;;;;;;;11.78;83.79;95135.27;1672047;84;21022;-51
2022/10/09 08:13:47;;;;;;;26.20;16.65;;;;;;;11.82;83.76;95139.26;1696494;84;21040;-50
2022/10/09 08:16:16;;;;;;;29.05;13.95;;;;;;;11.93;83.90;95130.03;1696446;83;21914;-50
2022/10/09 08:18:44;;;;;;;26.40;14.38;;;;;;;12.09;83.54;95124.36;1696501;84;20972;-51
2022/10/09 08:21:14;;;;;;;29.18;15.75;;;;;;;12.31;83.71;95131.44;1696334;84;21082;-51
2022/10/09 08:23:41;;;;;;;21.55;13.95;;;;;;;12.55;83.57;95131.14;1671396;84;21095;-50
2022/10/09 08:26:17;;;;;;;27.00;16.05;;;;;;;12.75;83.35;95134.33;1696370;83;21075;-50
2022/10/09 08:28:51;;;;;;;24.12;14.50;;;;;;;12.86;82.69;95133.33;1696533;84;21103;-48
2022/10/09 08:31:18;;;;;;;24.20;12.90;;;;;;;12.93;81.86;95131.70;1696287;84;21059;-50
2022/10/09 08:33:46;;;;;;;20.15;11.75;;;;;;;13.00;80.87;95134.18;1696426;84;21020;-49
2022/10/09 08:36:16;;;;;;;14.58;10.10;;;;;;;13.10;80.68;95131.63;1696303;83;20973;-52
2022/10/09 08:38:43;;;;;;;12.03;8.10;;;;;;;13.19;80.53;95129.67;1696443;84;21003;-50
2022/10/09 08:41:43;;;;;;;11.03;7.22;;;;;;;13.39;79.89;95132.82;1670753;84;21145;-51
2022/10/09 08:44:33;;;;;;;27.20;16.15;;;;;;;13.62;78.93;95130.13;1670209;84;21082;-51
2022/10/09 08:47:37;;;;;;;69.85;44.53;;;;;;;13.78;77.42;95131.25;1696453;84;20971;-52
2022/10/09 08:50:12;;;;;;;35.85;24.43;;;;;;;13.91;77.04;95136.02;1696315;83;21019;-50
2022/10/09 08:53:12;;;;;;;25.25;16.12;;;;;;;14.15;77.49;95130.06;1696501;84;21028;-51
2022/10/09 08:55:55;;;;;;;25.23;14.93;;;;;;;14.37;76.37;95134.86;1696807;84;21241;-50
2022/10/09 08:58:24;;;;;;;19.37;14.23;;;;;;;14.52;76.44;95139.30;1696544;83;21062;-50
2022/10/09 09:00:58;;;;;;;27.98;13.32;;;;;;;14.54;76.32;95136.23;1696866;83;21180;-50
2022/10/09 09:03:56;;;;;;;15.53;11.28;;;;;;;14.57;75.92;95138.07;1696622;83;21166;-50
2022/10/09 09:06:58;;;;;;;17.67;10.15;;;;;;;14.58;76.11;95141.59;1696515;83;21063;-50
2022/10/09 09:09:50;;;;;;;17.77;9.10;;;;;;;14.54;75.65;95142.38;1696595;83;21099;-49
2022/10/09 09:12:41;;;;;;;13.80;10.90;;;;;;;14.52;75.23;95138.70;1696710;83;21015;-49
2022/10/09 09:15:45;;;;;;;17.07;11.57;;;;;;;14.53;74.87;95138.85;1696436;83;21019;-50
2022/10/09 09:18:38;;;;;;;19.95;10.20;;;;;;;14.45;75.30;95148.68;1696343;83;21531;-50
2022/10/09 09:21:32;;;;;;;12.50;9.83;;;;;;;14.38;75.52;95155.77;1696396;83;21129;-51
2022/10/09 09:24:00;;;;;;;14.93;11.63;;;;;;;14.30;75.17;95154.52;1696826;83;21206;-50
2022/10/09 09:26:26;;;;;;;15.60;10.48;;;;;;;14.24;74.83;95154.39;1696394;84;21064;-50
2022/10/09 09:28:58;;;;;;;22.20;10.55;;;;;;;14.23;74.34;95161.75;1696624;84;21124;-50
2022/10/09 09:31:35;;;;;;;25.88;11.08;;;;;;;14.15;74.27;95150.81;1693627;84;21024;-50
2022/10/09 09:34:10;;;;;;;22.73;15.38;;;;;;;14.05;74.35;95154.79;1693726;83;21015;-51
2022/10/09 09:36:57;;;;;;;19.50;10.93;;;;;;;13.97;74.81;95160.48;1693550;84;21243;-51
2022/10/09 09:39:29;;;;;;;18.17;10.88;;;;;;;13.85;74.48;95154.45;1693606;84;21050;-51
2022/10/09 09:42:10;;;;;;;20.17;11.60;;;;;;;13.72;74.62;95162.09;1693736;84;21078;-54
2022/10/09 09:44:40;;;;;;;20.02;12.60;;;;;;;13.67;75.15;95160.69;1693738;84;21082;-49
2022/10/09 09:47:14;;;;;;;26.30;13.30;;;;;;;13.59;75.23;95166.99;1692601;84;21015;-50
2022/10/09 09:49:57;;;;;;;22.32;13.53;;;;;;;13.59;75.48;95168.37;1693757;83;21890;-50
2022/10/09 09:52:26;;;;;;;31.48;14.87;;;;;;;13.63;75.69;95174.52;1693494;83;21082;-51
2022/10/09 09:54:54;;;;;;;27.70;14.33;;;;;;;13.64;76.05;95169.91;1693721;84;21027;-50
2022/10/09 09:57:27;;;;;;;25.52;17.10;;;;;;;13.64;76.32;95177.44;1693310;84;21113;-51
2022/10/09 09:59:56;;;;;;;33.00;20.32;;;;;;;13.64;76.88;95180.20;1694008;84;21209;-51
2022/10/09 10:02:25;;;;;;;54.77;24.95;;;;;;;13.62;77.46;95184.05;1664857;84;21328;-54
2022/10/09 10:04:58;;;;;;;29.77;18.20;;;;;;;13.62;77.86;95177.13;1665881;84;21047;-51
2022/10/09 10:07:37;;;;;;;33.90;18.30;;;;;;;13.67;77.87;95180.05;1693410;84;21093;-49
2022/10/09 10:10:18;;;;;;;48.20;25.90;;;;;;;13.73;77.86;95178.24;1693713;84;21039;-53
2022/10/09 10:12:53;;;;;;;69.85;40.08;;;;;;;13.81;77.74;95176.71;1693738;84;21042;-51
2022/10/09 10:15:29;;;;;;;80.42;41.05;;;;;;;13.87;77.86;95176.89;1693649;83;22275;-51
2022/10/09 10:18:07;;;;;;;59.18;31.37;;;;;;;13.92;78.22;95177.06;1693490;84;21519;-51
2022/10/09 10:20:55;;;;;;;45.28;25.12;;;;;;;13.97;78.74;95177.08;1693497;83;20984;-50
2022/10/09 10:23:32;;;;;;;39.85;21.42;;;;;;;14.01;78.91;95177.69;1693587;83;21058;-51
2022/10/09 10:26:03;;;;;;;37.58;20.05;;;;;;;14.10;78.82;95177.69;1693502;84;21534;-52
2022/10/09 10:28:38;;;;;;;32.38;22.35;;;;;;;14.14;78.37;95179.09;1693590;83;21157;-51
2022/10/09 10:31:07;;;;;;;36.03;19.23;;;;;;;14.17;78.33;95176.06;1687291;84;20964;-52
2022/10/09 10:33:34;;;;;;;32.45;17.40;;;;;;;14.23;78.31;95167.29;1693528;83;20995;-51
2022/10/09 10:36:01;;;;;;;20.75;14.15;;;;;;;14.32;77.87;95172.22;1665920;84;20967;-52
2022/10/09 10:38:44;;;;;;;19.07;12.30;;;;;;;14.41;77.81;95165.92;1693554;83;21534;-53
2022/10/09 10:41:25;;;;;;;26.90;12.68;;;;;;;14.55;76.99;95164.08;1665484;84;21292;-52
2022/10/09 10:44:03;;;;;;;16.45;9.35;;;;;;;14.72;75.85;95156.98;1693716;83;21411;-52
2022/10/09 10:46:35;;;;;;;11.65;9.08;;;;;;;14.91;73.80;95172.34;1693829;84;21480;-51
2022/10/09 10:49:02;;;;;;;12.82;10.03;;;;;;;15.02;71.92;95165.69;1665435;83;20999;-54
2022/10/09 10:51:59;;;;;;;18.57;10.93;;;;;;;15.09;70.38;95165.38;1665825;84;21027;-51
2022/10/09 10:54:42;;;;;;;20.10;12.10;;;;;;;15.16;70.03;95164.30;1693508;83;21877;-52
2022/10/09 10:57:46;;;;;;;17.25;9.95;;;;;;;15.24;69.05;95169.64;1693340;84;21491;-54
2022/10/09 11:00:15;;;;;;;17.27;11.15;;;;;;;15.25;68.81;95171.96;1659206;84;20991;-51
2022/10/09 11:03:03;;;;;;;23.07;14.10;;;;;;;15.25;68.39;95171.96;1693450;83;20980;-54
2022/10/09 11:05:54;;;;;;;15.90;9.88;;;;;;;15.15;68.76;95164.89;1693599;84;21488;-51
2022/10/09 11:08:42;;;;;;;7.92;6.30;;;;;;;15.08;68.22;95163.06;1693514;83;21161;-53
2022/10/09 11:11:37;;;;;;;17.55;6.30;;;;;;;15.02;68.09;95165.69;1693357;84;20980;-53
2022/10/09 11:14:16;;;;;;;12.90;5.60;;;;;;;14.97;68.55;95168.34;1668018;84;21420;-51
2022/10/09 11:17:13;;;;;;;8.35;6.42;;;;;;;14.92;68.69;95168.34;1693546;84;21015;-51
2022/10/09 11:20:29;;;;;;;10.05;6.47;;;;;;;14.94;69.16;95167.25;1676275;83;21019;-52
2022/10/09 11:23:23;;;;;;;12.73;7.33;;;;;;;14.92;69.42;95160.03;1693517;84;21152;-53
2022/10/09 11:25:58;;;;;;;13.43;8.08;;;;;;;14.94;69.29;95160.33;1714810;83;21055;-53
2022/10/09 11:28:28;;;;;;;17.50;8.35;;;;;;;14.93;69.13;95164.34;1727752;83;21529;-51
2022/10/09 11:31:15;;;;;;;15.58;8.33;;;;;;;14.92;69.37;95164.19;1727873;82;21482;-51
2022/10/09 11:33:55;;;;;;;15.50;8.73;;;;;;;14.93;69.85;95164.34;1701869;82;20966;-55
2022/10/09 11:36:33;;;;;;;16.17;9.40;;;;;;;14.92;70.31;95156.47;1728647;82;21220;-53
2022/10/09 11:39:04;;;;;;;14.13;8.85;;;;;;;14.87;69.89;95159.28;1728137;83;21001;-52
2022/10/09 11:41:31;;;;;;;19.00;9.43;;;;;;;14.83;69.49;95151.72;1728277;82;21033;-51
2022/10/09 11:44:54;;;;;;;19.27;8.43;;;;;;;14.83;69.93;95157.27;1748332;81;21500;-50
2022/10/09 11:47:32;;;;;;;11.80;8.15;;;;;;;14.83;70.61;95160.03;1664198;86;21102;-52